Terminal Aerodrome Forecast
Issued by NWS

Home | Current Version | Previous Version | Graphics & Text | Print | Product List | Glossary On
Versions: 1 2 3 4 5 6 7 8 9 10 11 12 13 14 15 16 17 18 19 20 21 22
464
FTUS43 KGRB 171722
TAFAUW
TAF
KAUW 171722Z 1718/1818 36004KT 6SM BR OVC007
      TEMPO 1718/1722 3SM -DZ BR SCT007 OVC020
     FM172200 33004KT P6SM SCT007 OVC025
     FM180100 31003KT P6SM BKN020 OVC070
     FM180700 26004KT 5SM BR SCT007 OVC015
      TEMPO 1810/1814 2SM BR BKN007
     FM181500 20008KT P6SM BKN020=

USA.gov is the U.S. government's official web portal to all federal, state and local government web resources and services.